createdAt,value
2018-09-30T00:01:56.841Z,5.60
2018-09-30T00:04:25.087Z,5.77
2018-09-30T00:06:53.331Z,5.77
2018-09-30T00:09:25.811Z,5.97
2018-09-30T00:11:54.039Z,5.70
2018-09-30T00:14:22.275Z,5.40
2018-09-30T00:16:50.480Z,4.93
2018-09-30T00:19:18.719Z,4.73
2018-09-30T00:21:46.963Z,5.63
2018-09-30T00:24:20.615Z,5.30
2018-09-30T00:26:54.216Z,5.33
2018-09-30T00:29:22.727Z,5.07
2018-09-30T00:31:50.963Z,5.13
2018-09-30T00:34:24.578Z,4.90
2018-09-30T00:36:53.382Z,5.60
2018-09-30T00:39:21.631Z,4.90
2018-09-30T00:41:49.892Z,5.07
2018-09-30T00:44:18.123Z,5.40
2018-09-30T00:46:49.383Z,5.60
2018-09-30T00:49:17.598Z,5.20
2018-09-30T00:51:45.820Z,6.20
2018-09-30T00:54:14.806Z,5.87
2018-09-30T00:56:43.179Z,5.60
2018-09-30T00:59:11.889Z,5.70
2018-09-30T01:01:40.118Z,5.30
2018-09-30T01:04:08.658Z,5.30
2018-09-30T01:06:36.901Z,5.40
2018-09-30T01:09:08.662Z,5.43
2018-09-30T01:11:36.976Z,6.53
2018-09-30T01:14:05.199Z,5.17
2018-09-30T01:16:33.458Z,5.60
2018-09-30T01:19:01.690Z,5.57
2018-09-30T01:21:29.939Z,5.20
2018-09-30T01:23:58.162Z,5.70
2018-09-30T01:26:26.395Z,5.30
2018-09-30T01:28:54.625Z,5.70
2018-09-30T01:31:22.914Z,5.77
2018-09-30T01:33:51.134Z,5.90
2018-09-30T01:36:19.350Z,5.97
2018-09-30T01:38:47.577Z,6.30
2018-09-30T01:41:15.833Z,5.97
2018-09-30T01:43:44.043Z,5.73
2018-09-30T01:46:12.410Z,6.00
2018-09-30T01:48:40.877Z,5.93
2018-09-30T01:51:09.106Z,5.17
2018-09-30T01:53:37.322Z,6.20
2018-09-30T01:56:05.558Z,6.53
2018-09-30T01:58:33.777Z,5.50
2018-09-30T02:01:02.008Z,6.17
2018-09-30T02:03:30.214Z,5.07
2018-09-30T02:05:58.446Z,6.23
2018-09-30T02:08:26.659Z,4.90
2018-09-30T02:10:54.883Z,5.30
2018-09-30T02:13:23.099Z,5.60
2018-09-30T02:15:51.327Z,5.40
2018-09-30T02:18:19.547Z,6.07
2018-09-30T02:20:47.773Z,5.70
2018-09-30T02:23:15.995Z,5.93
2018-09-30T02:25:44.219Z,6.00
2018-09-30T02:28:12.563Z,5.43
2018-09-30T02:30:40.954Z,5.10
2018-09-30T02:33:09.172Z,5.27
2018-09-30T02:35:37.399Z,5.80
2018-09-30T02:38:05.631Z,5.13
2018-09-30T02:40:33.859Z,5.07
2018-09-30T02:43:02.091Z,6.00
2018-09-30T02:45:30.306Z,5.50
2018-09-30T02:47:58.530Z,4.77
2018-09-30T02:50:26.763Z,5.30
2018-09-30T02:52:54.978Z,5.50
2018-09-30T02:55:23.199Z,6.10
2018-09-30T02:57:51.423Z,5.20
2018-09-30T03:00:19.630Z,5.40
2018-09-30T03:02:47.859Z,6.37
2018-09-30T03:05:16.071Z,5.87
2018-09-30T03:07:49.822Z,5.73
2018-09-30T03:10:18.039Z,5.67
2018-09-30T03:12:46.255Z,5.53
2018-09-30T03:15:14.677Z,6.07
2018-09-30T03:17:42.894Z,5.93
2018-09-30T03:20:11.146Z,5.93
2018-09-30T03:22:39.380Z,5.30
2018-09-30T03:25:07.604Z,5.67
2018-09-30T03:27:35.839Z,5.10
2018-09-30T03:30:04.139Z,5.13
2018-09-30T03:32:32.367Z,4.70
2018-09-30T03:35:00.583Z,5.10
2018-09-30T03:37:28.806Z,5.50
2018-09-30T03:39:57.018Z,5.10
2018-09-30T03:42:25.239Z,5.20
2018-09-30T03:44:53.442Z,5.30
2018-09-30T03:47:21.644Z,6.50
2018-09-30T03:49:49.844Z,5.13
2018-09-30T03:52:18.040Z,5.80
2018-09-30T03:54:46.234Z,5.43
2018-09-30T03:57:14.448Z,5.33
2018-09-30T03:59:42.649Z,5.40
2018-09-30T04:02:10.849Z,5.13
2018-09-30T04:04:39.051Z,5.37
2018-09-30T04:07:07.242Z,4.87
2018-09-30T04:09:35.503Z,5.60
2018-09-30T04:12:03.651Z,5.60
2018-09-30T04:14:32.075Z,5.53
2018-09-30T04:17:00.377Z,5.93
2018-09-30T04:19:28.741Z,5.13
2018-09-30T04:21:56.941Z,5.20
2018-09-30T04:24:25.152Z,5.37
2018-09-30T04:26:53.332Z,5.40
2018-09-30T04:29:21.539Z,5.60
2018-09-30T04:31:49.767Z,4.90
2018-09-30T04:34:18.027Z,5.20
2018-09-30T04:36:46.226Z,4.97
2018-09-30T04:39:14.434Z,5.27
2018-09-30T04:41:42.653Z,5.17
2018-09-30T04:44:10.859Z,6.10
2018-09-30T04:46:39.071Z,6.07
2018-09-30T04:49:07.275Z,5.20
2018-09-30T04:51:35.479Z,5.43
2018-09-30T04:54:03.720Z,5.77
2018-09-30T04:56:31.939Z,6.23
2018-09-30T04:59:00.151Z,6.27
2018-09-30T05:01:28.354Z,5.03
2018-09-30T05:03:56.555Z,5.40
2018-09-30T05:06:24.750Z,5.40
2018-09-30T05:08:52.955Z,5.37
2018-09-30T05:11:21.159Z,5.17
2018-09-30T05:13:49.369Z,5.77
2018-09-30T05:16:17.609Z,5.70
2018-09-30T05:18:45.804Z,5.83
2018-09-30T05:21:14.043Z,6.17
2018-09-30T05:23:42.251Z,5.90
2018-09-30T05:26:10.457Z,6.47
2018-09-30T05:28:38.671Z,6.00
2018-09-30T05:31:07.122Z,6.47
2018-09-30T05:33:35.311Z,4.90
2018-09-30T05:36:03.661Z,4.93
2018-09-30T05:38:31.927Z,5.87
2018-09-30T05:41:00.232Z,6.20
2018-09-30T05:43:28.583Z,6.20
2018-09-30T05:45:56.845Z,6.00
2018-09-30T05:48:25.089Z,6.10
2018-09-30T05:50:53.395Z,6.10
2018-09-30T05:53:21.788Z,5.90
2018-09-30T05:55:50.305Z,6.40
2018-09-30T05:58:18.573Z,5.97
2018-09-30T06:00:46.838Z,5.80
2018-09-30T06:03:15.203Z,5.33
2018-09-30T06:05:43.576Z,5.60
2018-09-30T06:08:11.856Z,5.70
2018-09-30T06:10:40.163Z,6.33
2018-09-30T06:13:08.429Z,6.43
2018-09-30T06:15:36.724Z,6.40
2018-09-30T06:18:05.004Z,5.97
2018-09-30T06:20:33.265Z,5.80
2018-09-30T06:23:01.524Z,5.70
2018-09-30T06:25:29.875Z,5.87
2018-09-30T06:27:58.201Z,6.87
2018-09-30T06:30:26.467Z,5.50
2018-09-30T06:32:54.743Z,6.20
2018-09-30T06:35:23.008Z,6.00
2018-09-30T06:37:51.260Z,6.30
2018-09-30T06:40:19.519Z,5.57
2018-09-30T06:42:47.769Z,6.23
2018-09-30T06:45:16.102Z,5.70
2018-09-30T06:47:44.435Z,6.27
2018-09-30T06:50:12.700Z,6.70
2018-09-30T06:52:40.959Z,7.33
2018-09-30T06:55:09.228Z,6.90
2018-09-30T06:57:37.504Z,6.80
2018-09-30T07:00:05.787Z,6.30
2018-09-30T07:02:34.063Z,6.30
2018-09-30T07:05:02.346Z,7.07
2018-09-30T07:07:30.584Z,7.40
2018-09-30T07:09:58.827Z,7.73
2018-09-30T07:12:27.097Z,7.20
2018-09-30T07:14:55.347Z,6.77
2018-09-30T07:17:23.701Z,8.10
2018-09-30T07:19:51.996Z,6.67
2018-09-30T07:22:20.380Z,6.57
2018-09-30T07:24:48.545Z,6.70
2018-09-30T07:27:16.811Z,7.50
2018-09-30T07:29:45.080Z,7.07
2018-09-30T07:32:13.412Z,7.37
2018-09-30T07:34:41.716Z,6.57
2018-09-30T07:37:09.991Z,6.50
2018-09-30T07:39:38.256Z,6.97
2018-09-30T07:42:06.537Z,7.00
2018-09-30T07:44:34.775Z,6.93
2018-09-30T07:47:03.041Z,7.23
2018-09-30T07:49:31.280Z,7.57
2018-09-30T07:51:59.548Z,7.37
2018-09-30T07:54:27.801Z,7.30
2018-09-30T07:56:56.077Z,6.87
2018-09-30T07:59:24.323Z,7.40
2018-09-30T08:01:52.571Z,7.03
2018-09-30T08:04:20.797Z,7.20
2018-09-30T08:06:49.112Z,6.57
2018-09-30T08:09:17.357Z,7.73
2018-09-30T08:11:45.636Z,6.80
2018-09-30T08:14:13.872Z,7.10
2018-09-30T08:16:42.191Z,6.97
2018-09-30T08:19:10.466Z,7.50
2018-09-30T08:21:38.726Z,5.80
2018-09-30T08:24:07.138Z,7.03
2018-09-30T08:26:35.300Z,6.77
2018-09-30T08:29:03.572Z,6.53
2018-09-30T08:31:31.820Z,7.30
2018-09-30T08:34:00.083Z,6.30
2018-09-30T08:36:28.414Z,6.57
2018-09-30T08:38:56.667Z,6.63
2018-09-30T08:41:25.377Z,6.77
2018-09-30T08:43:54.988Z,6.23
2018-09-30T08:46:23.168Z,6.37
2018-09-30T08:48:51.423Z,6.10
2018-09-30T08:51:19.747Z,6.77
2018-09-30T08:53:48.239Z,5.73
2018-09-30T08:56:16.718Z,9.40
2018-09-30T08:58:44.975Z,7.20
2018-09-30T09:01:13.222Z,6.47
2018-09-30T09:03:41.475Z,9.60
2018-09-30T09:06:09.727Z,6.27
2018-09-30T09:08:38.019Z,8.10
2018-09-30T09:11:06.387Z,7.00
2018-09-30T09:13:34.676Z,6.50
2018-09-30T09:16:03.832Z,9.83
2018-09-30T09:18:32.252Z,6.80
2018-09-30T09:21:02.513Z,7.00
2018-09-30T09:23:30.810Z,7.50
2018-09-30T09:25:59.031Z,6.67
2018-09-30T09:28:27.306Z,5.70
2018-09-30T09:30:55.672Z,6.37
2018-09-30T09:33:24.110Z,6.57
2018-09-30T09:35:52.384Z,5.60
2018-09-30T09:38:20.693Z,6.00
2018-09-30T09:40:49.047Z,6.33
2018-09-30T09:43:18.052Z,6.03
2018-09-30T09:45:47.116Z,6.30
2018-09-30T09:48:15.434Z,6.00
2018-09-30T09:50:51.361Z,6.47
2018-09-30T09:53:19.910Z,6.50
2018-09-30T09:55:48.162Z,6.03
2018-09-30T09:58:16.557Z,6.00
2018-09-30T10:00:45.694Z,6.20
2018-09-30T10:03:15.785Z,6.07
2018-09-30T10:05:44.126Z,5.83
2018-09-30T10:08:12.551Z,5.73
2018-09-30T10:10:40.831Z,6.60
2018-09-30T10:13:09.517Z,6.10
2018-09-30T10:15:37.816Z,6.47
2018-09-30T10:18:06.115Z,6.43
2018-09-30T10:20:34.436Z,5.87
2018-09-30T10:23:02.716Z,6.70
2018-09-30T10:25:32.360Z,6.60
2018-09-30T10:28:01.335Z,5.77
2018-09-30T10:30:29.728Z,5.80
2018-09-30T10:32:58.780Z,6.30
2018-09-30T10:35:27.067Z,5.70
2018-09-30T10:37:55.327Z,6.77
2018-09-30T10:40:23.719Z,5.30
2018-09-30T10:42:51.980Z,5.83
2018-09-30T10:45:20.257Z,5.60
2018-09-30T10:47:48.523Z,5.47
2018-09-30T10:50:17.035Z,5.53
2018-09-30T10:52:45.423Z,5.40
2018-09-30T10:55:13.683Z,6.43
2018-09-30T10:57:41.915Z,5.37
2018-09-30T11:00:10.171Z,5.70
2018-09-30T11:02:38.407Z,5.63
2018-09-30T11:05:06.679Z,6.50
2018-09-30T11:07:34.890Z,5.63
2018-09-30T11:10:03.168Z,5.53
2018-09-30T11:12:31.392Z,5.17
2018-09-30T11:14:59.615Z,5.10
2018-09-30T11:17:27.853Z,5.60
2018-09-30T11:19:56.111Z,5.80
2018-09-30T11:22:24.356Z,5.27
2018-09-30T11:24:52.619Z,6.00
2018-09-30T11:27:20.950Z,5.77
2018-09-30T11:29:49.300Z,5.37
2018-09-30T11:32:17.752Z,5.73
2018-09-30T11:34:45.976Z,5.87
2018-09-30T11:37:14.212Z,5.03
2018-09-30T11:39:42.562Z,4.90
2018-09-30T11:42:10.854Z,5.20
2018-09-30T11:44:39.334Z,5.20
2018-09-30T11:47:09.756Z,5.07
2018-09-30T11:49:38.081Z,5.27
2018-09-30T11:52:06.427Z,5.20
2018-09-30T11:54:36.073Z,4.70
2018-09-30T11:57:04.450Z,5.47
2018-09-30T11:59:32.773Z,5.30
2018-09-30T12:02:01.069Z,5.43
2018-09-30T12:04:29.417Z,5.20
2018-09-30T12:06:58.955Z,5.50
2018-09-30T12:09:27.258Z,5.80
2018-09-30T12:11:55.619Z,6.00
2018-09-30T12:14:24.009Z,5.20
2018-09-30T12:16:52.329Z,5.73
2018-09-30T12:19:20.970Z,5.23
2018-09-30T12:21:49.363Z,5.50
2018-09-30T12:24:17.727Z,5.90
2018-09-30T12:26:46.098Z,5.37
2018-09-30T12:29:14.424Z,5.30
2018-09-30T12:31:42.764Z,5.70
2018-09-30T12:34:11.328Z,4.63
2018-09-30T12:36:39.736Z,5.43
2018-09-30T12:39:09.019Z,5.20
2018-09-30T12:41:37.381Z,4.93
2018-09-30T12:44:05.699Z,5.43
2018-09-30T12:46:34.005Z,5.50
2018-09-30T12:49:02.409Z,5.83
2018-09-30T12:51:30.824Z,5.63
2018-09-30T12:53:59.157Z,6.13
2018-09-30T12:56:27.479Z,5.70
2018-09-30T12:58:55.880Z,6.33
2018-09-30T13:01:24.163Z,5.53
2018-09-30T13:03:52.479Z,6.07
2018-09-30T13:06:20.768Z,5.80
2018-09-30T13:08:49.129Z,6.50
2018-09-30T13:11:17.482Z,5.90
2018-09-30T13:13:45.795Z,6.10
2018-09-30T13:16:14.088Z,5.90
2018-09-30T13:18:42.385Z,5.53
2018-09-30T13:21:10.656Z,5.97
2018-09-30T13:23:38.932Z,5.70
2018-09-30T13:26:07.215Z,4.77
2018-09-30T13:28:35.524Z,5.57
2018-09-30T13:31:03.800Z,5.50
2018-09-30T13:33:32.109Z,6.10
2018-09-30T13:36:00.343Z,5.63
2018-09-30T13:38:28.620Z,5.93
2018-09-30T13:40:57.041Z,5.63
2018-09-30T13:43:25.212Z,5.63
2018-09-30T13:45:53.500Z,5.73
2018-09-30T13:48:21.768Z,5.80
2018-09-30T13:50:50.044Z,4.87
2018-09-30T13:53:18.364Z,5.70
2018-09-30T13:55:46.614Z,5.80
2018-09-30T13:58:14.923Z,5.50
2018-09-30T14:00:43.223Z,5.30
2018-09-30T14:03:11.504Z,5.73
2018-09-30T14:05:39.780Z,5.63
2018-09-30T14:08:08.052Z,5.27
2018-09-30T14:10:36.301Z,4.80
2018-09-30T14:13:04.564Z,5.30
2018-09-30T14:15:32.844Z,5.13
2018-09-30T14:18:01.109Z,5.63
2018-09-30T14:20:29.372Z,5.60
2018-09-30T14:22:57.652Z,5.50
2018-09-30T14:25:25.938Z,5.90
2018-09-30T14:27:54.225Z,5.80
2018-09-30T14:30:22.483Z,5.07
2018-09-30T14:32:50.808Z,5.63
2018-09-30T14:35:19.068Z,4.93
2018-09-30T14:37:47.360Z,5.30
2018-09-30T14:40:15.648Z,5.23
2018-09-30T14:42:43.936Z,5.33
2018-09-30T14:45:12.224Z,5.50
2018-09-30T14:47:40.507Z,5.17
2018-09-30T14:50:08.804Z,5.37
2018-09-30T14:52:37.092Z,6.30
2018-09-30T14:55:05.410Z,6.23
2018-09-30T14:57:33.699Z,6.93
2018-09-30T15:00:01.964Z,5.43
2018-09-30T15:02:30.280Z,5.33
2018-09-30T15:04:58.629Z,5.53
2018-09-30T15:07:27.282Z,6.77
2018-09-30T15:09:55.702Z,7.17
2018-09-30T15:12:23.968Z,7.60
2018-09-30T15:14:52.277Z,7.20
2018-09-30T15:17:20.588Z,6.10
2018-09-30T15:19:48.844Z,5.63
2018-09-30T15:22:17.120Z,6.80
2018-09-30T15:24:45.394Z,6.77
2018-09-30T15:27:13.669Z,6.00
2018-09-30T15:29:42.020Z,6.87
2018-09-30T15:32:10.268Z,5.70
2018-09-30T15:34:38.544Z,6.03
2018-09-30T15:37:07.615Z,5.10
2018-09-30T15:39:35.944Z,5.97
2018-09-30T15:42:10.675Z,5.60
2018-09-30T15:44:38.964Z,5.63
2018-09-30T15:47:07.212Z,6.47
2018-09-30T15:49:35.480Z,6.80
2018-09-30T15:52:03.741Z,7.40
2018-09-30T15:54:32.064Z,7.07
2018-09-30T15:57:01.877Z,7.87
2018-09-30T15:59:30.182Z,8.00
2018-09-30T16:01:58.446Z,8.40
2018-09-30T16:04:26.736Z,7.67
2018-09-30T16:06:54.975Z,5.90
2018-09-30T16:09:23.255Z,7.07
2018-09-30T16:11:51.512Z,7.17
2018-09-30T16:14:19.774Z,7.27
2018-09-30T16:16:48.007Z,8.33
2018-09-30T16:19:16.235Z,7.43
2018-09-30T16:21:44.481Z,7.70
2018-09-30T16:24:12.744Z,7.37
2018-09-30T16:26:41.034Z,6.80
2018-09-30T16:29:09.271Z,6.67
2018-09-30T16:31:37.503Z,6.20
2018-09-30T16:34:05.831Z,7.27
2018-09-30T16:36:34.083Z,7.20
2018-09-30T16:39:02.316Z,6.53
2018-09-30T16:41:30.653Z,6.60
2018-09-30T16:43:58.839Z,7.40
2018-09-30T16:46:27.085Z,7.37
2018-09-30T16:48:55.311Z,8.93
2018-09-30T16:51:23.547Z,10.17
2018-09-30T16:53:51.773Z,10.90
2018-09-30T16:56:19.999Z,13.80
2018-09-30T16:58:48.241Z,13.50
2018-09-30T17:01:16.492Z,11.97
2018-09-30T17:03:44.732Z,12.03
2018-09-30T17:06:12.980Z,11.70
2018-09-30T17:08:41.197Z,9.47
2018-09-30T17:11:09.452Z,8.57
2018-09-30T17:13:37.704Z,7.73
2018-09-30T17:16:06.026Z,8.03
2018-09-30T17:18:34.216Z,8.20
2018-09-30T17:21:02.464Z,9.23
2018-09-30T17:23:31.071Z,10.37
2018-09-30T17:25:59.289Z,9.80
2018-09-30T17:28:27.516Z,10.50
2018-09-30T17:30:55.751Z,10.97
2018-09-30T17:33:23.967Z,9.63
2018-09-30T17:35:52.179Z,9.67
2018-09-30T17:38:20.378Z,9.10
2018-09-30T17:40:48.615Z,9.20
2018-09-30T17:43:16.823Z,9.40
2018-09-30T17:45:45.029Z,9.10
2018-09-30T17:48:13.233Z,8.90
2018-09-30T17:50:41.442Z,8.67
2018-09-30T17:53:09.631Z,10.07
2018-09-30T17:55:37.846Z,9.83
2018-09-30T17:58:06.157Z,10.30
2018-09-30T18:00:34.295Z,9.50
2018-09-30T18:03:02.663Z,10.20
2018-09-30T18:05:30.940Z,10.17
2018-09-30T18:07:59.154Z,10.00
2018-09-30T18:10:27.371Z,9.50
2018-09-30T18:12:55.570Z,10.40
2018-09-30T18:15:23.803Z,9.90
2018-09-30T18:17:52.019Z,11.27
2018-09-30T18:20:20.218Z,10.93
2018-09-30T18:22:48.436Z,11.07
2018-09-30T18:25:16.644Z,10.67
2018-09-30T18:27:44.854Z,12.07
2018-09-30T18:30:13.058Z,11.90
2018-09-30T18:32:41.287Z,12.07
2018-09-30T18:35:09.483Z,10.37
2018-09-30T18:37:37.727Z,9.30
2018-09-30T18:40:06.077Z,9.53
2018-09-30T18:42:34.291Z,9.30
2018-09-30T18:45:02.955Z,9.43
2018-09-30T18:47:31.182Z,8.37
2018-09-30T18:49:59.415Z,8.73
2018-09-30T18:52:27.631Z,7.73
2018-09-30T18:54:55.831Z,16.20
2018-09-30T18:57:24.031Z,8.53
2018-09-30T18:59:52.230Z,10.40
2018-09-30T19:02:20.435Z,10.30
2018-09-30T19:04:48.636Z,9.00
2018-09-30T19:07:16.827Z,8.17
2018-09-30T19:09:45.055Z,7.90
2018-09-30T19:12:13.397Z,9.20
2018-09-30T19:14:41.466Z,9.50
2018-09-30T19:17:09.674Z,9.97
2018-09-30T19:19:37.879Z,10.00
2018-09-30T19:22:06.546Z,9.47
2018-09-30T19:24:34.973Z,8.83
2018-09-30T19:27:03.232Z,8.63
2018-09-30T19:29:31.435Z,8.43
2018-09-30T19:31:59.639Z,8.97
2018-09-30T19:34:28.084Z,8.03
2018-09-30T19:36:56.283Z,8.07
2018-09-30T19:39:24.541Z,8.17
2018-09-30T19:41:52.887Z,11.57
2018-09-30T19:44:21.011Z,9.37
2018-09-30T19:46:49.226Z,9.83
2018-09-30T19:49:17.451Z,8.57
2018-09-30T19:51:45.668Z,8.00
2018-09-30T19:54:13.898Z,9.90
2018-09-30T19:56:42.115Z,8.47
2018-09-30T19:59:10.446Z,9.30
2018-09-30T20:01:38.660Z,8.87
2018-09-30T20:04:06.909Z,9.10
2018-09-30T20:06:35.179Z,8.53
2018-09-30T20:09:03.593Z,8.83
2018-09-30T20:11:31.767Z,9.23
2018-09-30T20:13:59.996Z,8.60
2018-09-30T20:16:28.214Z,7.73
2018-09-30T20:18:56.460Z,8.30
2018-09-30T20:21:24.695Z,7.63
2018-09-30T20:23:52.917Z,8.07
2018-09-30T20:26:21.144Z,7.80
2018-09-30T20:28:49.371Z,8.10
2018-09-30T20:31:17.592Z,6.50
2018-09-30T20:33:45.830Z,8.37
2018-09-30T20:36:14.047Z,7.97
2018-09-30T20:38:42.282Z,7.40
2018-09-30T20:41:10.668Z,8.27
2018-09-30T20:43:38.921Z,8.20
2018-09-30T20:46:07.172Z,8.23
2018-09-30T20:48:35.576Z,7.80
2018-09-30T20:51:03.775Z,7.50
2018-09-30T20:53:31.979Z,8.50
2018-09-30T20:56:00.203Z,8.10
2018-09-30T20:58:28.395Z,8.10
2018-09-30T21:00:56.591Z,7.87
2018-09-30T21:03:24.807Z,7.50
2018-09-30T21:06:31.377Z,7.63
2018-09-30T21:08:59.619Z,7.83
2018-09-30T21:11:27.851Z,8.07
2018-09-30T21:13:56.324Z,7.40
2018-09-30T21:16:24.599Z,7.43
2018-09-30T21:18:52.811Z,8.37
2018-09-30T21:21:21.824Z,8.47
2018-09-30T21:23:50.015Z,8.67
2018-09-30T21:26:18.217Z,8.83
2018-09-30T21:28:46.427Z,8.17
2018-09-30T21:31:14.633Z,8.47
2018-09-30T21:33:42.835Z,8.20
2018-09-30T21:36:11.093Z,7.77
2018-09-30T21:38:39.295Z,8.30
2018-09-30T21:41:07.535Z,8.53
2018-09-30T21:43:35.754Z,8.30
2018-09-30T21:46:03.975Z,8.53
2018-09-30T21:48:32.215Z,7.93
2018-09-30T21:51:00.449Z,7.87
2018-09-30T21:53:28.670Z,8.13
2018-09-30T21:55:56.898Z,8.80
2018-09-30T21:58:25.120Z,8.60
2018-09-30T22:00:59.414Z,8.77
2018-09-30T22:03:27.998Z,8.97
2018-09-30T22:05:56.231Z,8.40
2018-09-30T22:08:24.455Z,8.33
2018-09-30T22:10:52.690Z,8.53
2018-09-30T22:13:20.902Z,8.37
2018-09-30T22:15:49.213Z,8.83
2018-09-30T22:18:17.502Z,8.47
2018-09-30T22:20:45.766Z,9.53
2018-09-30T22:23:14.147Z,9.40
2018-09-30T22:25:42.401Z,10.10
2018-09-30T22:28:10.622Z,10.63
2018-09-30T22:30:38.853Z,11.13
2018-09-30T22:33:07.087Z,10.37
2018-09-30T22:35:35.314Z,8.73
2018-09-30T22:38:03.531Z,9.10
2018-09-30T22:40:31.747Z,9.50
2018-09-30T22:42:59.949Z,9.20
2018-09-30T22:45:28.162Z,9.50
2018-09-30T22:47:56.363Z,10.37
2018-09-30T22:50:24.584Z,10.60
2018-09-30T22:52:52.797Z,10.03
2018-09-30T22:55:21.014Z,10.60
2018-09-30T22:57:49.215Z,9.40
2018-09-30T23:00:17.420Z,10.27
2018-09-30T23:02:45.642Z,9.60
2018-09-30T23:05:13.879Z,10.27
2018-09-30T23:07:42.091Z,9.60
2018-09-30T23:10:11.661Z,9.37
2018-09-30T23:12:39.899Z,11.40
2018-09-30T23:15:08.123Z,10.03
2018-09-30T23:17:36.353Z,9.80
2018-09-30T23:20:04.630Z,10.27
2018-09-30T23:22:32.847Z,9.60
2018-09-30T23:25:01.050Z,8.90
2018-09-30T23:27:29.268Z,10.23
2018-09-30T23:29:57.475Z,9.53
2018-09-30T23:32:25.699Z,9.77
2018-09-30T23:34:53.911Z,9.30
2018-09-30T23:37:22.133Z,11.33
2018-09-30T23:39:50.334Z,10.03
2018-09-30T23:42:18.609Z,9.23
2018-09-30T23:44:46.838Z,8.57
2018-09-30T23:47:15.078Z,8.43
2018-09-30T23:49:43.334Z,9.00
2018-09-30T23:52:11.575Z,8.73
2018-09-30T23:54:39.804Z,9.40
2018-09-30T23:57:08.055Z,9.00
2018-09-30T23:59:36.283Z,8.40
